sensor_id;sensor_type;location;lat;lon;timestamp;pressure;altitude;pressure_sealevel;temperature;humidity
75192;BME280;63771;52.580;9.734;2024-01-30T00:00:58;102428.13;;;3.95;96.74
75192;BME280;63771;52.580;9.734;2024-01-30T00:03:24;102434.31;;;3.97;96.69
75192;BME280;63771;52.580;9.734;2024-01-30T00:05:49;102427.84;;;3.99;97.24
75192;BME280;63771;52.580;9.734;2024-01-30T00:08:14;102431.25;;;4.00;97.16
75192;BME280;63771;52.580;9.734;2024-01-30T00:10:40;102424.59;;;4.00;97.47
75192;BME280;63771;52.580;9.734;2024-01-30T00:13:05;102435.53;;;4.06;98.04
75192;BME280;63771;52.580;9.734;2024-01-30T00:15:30;102418.56;;;4.05;97.43
75192;BME280;63771;52.580;9.734;2024-01-30T00:17:56;102426.03;;;4.11;97.58
75192;BME280;63771;52.580;9.734;2024-01-30T00:20:21;102423.75;;;4.12;97.24
75192;BME280;63771;52.580;9.734;2024-01-30T00:22:47;102425.75;;;4.15;97.78
75192;BME280;63771;52.580;9.734;2024-01-30T00:25:13;102420.19;;;4.17;97.75
75192;BME280;63771;52.580;9.734;2024-01-30T00:27:38;102418.09;;;4.21;97.32
75192;BME280;63771;52.580;9.734;2024-01-30T00:30:06;102418.09;;;4.21;97.55
75192;BME280;63771;52.580;9.734;2024-01-30T00:32:32;102416.66;;;4.23;97.65
75192;BME280;63771;52.580;9.734;2024-01-30T00:34:57;102423.97;;;4.27;97.78
75192;BME280;63771;52.580;9.734;2024-01-30T00:37:23;102416.59;;;4.28;97.75
75192;BME280;63771;52.580;9.734;2024-01-30T00:39:48;102409.03;;;4.28;97.49
75192;BME280;63771;52.580;9.734;2024-01-30T00:42:14;102410.41;;;4.26;97.27
75192;BME280;63771;52.580;9.734;2024-01-30T00:44:39;102415.47;;;4.26;97.19
75192;BME280;63771;52.580;9.734;2024-01-30T00:47:05;102413.84;;;4.27;97.55
75192;BME280;63771;52.580;9.734;2024-01-30T00:49:31;102416.00;;;4.24;97.61
75192;BME280;63771;52.580;9.734;2024-01-30T00:51:56;102404.03;;;4.23;98.32
75192;BME280;63771;52.580;9.734;2024-01-30T00:54:21;102405.66;;;4.22;97.74
75192;BME280;63771;52.580;9.734;2024-01-30T00:56:47;102402.03;;;4.20;98.00
75192;BME280;63771;52.580;9.734;2024-01-30T00:59:12;102413.75;;;4.19;97.86
75192;BME280;63771;52.580;9.734;2024-01-30T01:01:40;102423.34;;;4.22;98.08
75192;BME280;63771;52.580;9.734;2024-01-30T01:04:06;102410.50;;;4.21;98.47
75192;BME280;63771;52.580;9.734;2024-01-30T01:06:32;102405.66;;;4.22;98.49
75192;BME280;63771;52.580;9.734;2024-01-30T01:08:57;102406.16;;;4.19;98.98
75192;BME280;63771;52.580;9.734;2024-01-30T01:11:23;102421.84;;;4.30;99.47
75192;BME280;63771;52.580;9.734;2024-01-30T01:13:48;102425.00;;;4.34;99.21
75192;BME280;63771;52.580;9.734;2024-01-30T01:16:13;102418.72;;;4.38;99.18
75192;BME280;63771;52.580;9.734;2024-01-30T01:18:39;102420.06;;;4.41;99.22
75192;BME280;63771;52.580;9.734;2024-01-30T01:21:04;102416.31;;;4.45;98.95
75192;BME280;63771;52.580;9.734;2024-01-30T01:23:30;102411.97;;;4.44;98.88
75192;BME280;63771;52.580;9.734;2024-01-30T01:25:55;102415.31;;;4.50;98.90
75192;BME280;63771;52.580;9.734;2024-01-30T01:28:20;102411.16;;;4.51;98.79
75192;BME280;63771;52.580;9.734;2024-01-30T01:30:45;102413.91;;;4.52;98.98
75192;BME280;63771;52.580;9.734;2024-01-30T01:33:11;102408.13;;;4.53;99.21
75192;BME280;63771;52.580;9.734;2024-01-30T01:35:39;102406.94;;;4.57;99.15
75192;BME280;63771;52.580;9.734;2024-01-30T01:38:05;102408.25;;;4.60;98.78
75192;BME280;63771;52.580;9.734;2024-01-30T01:40:30;102406.34;;;4.65;98.06
75192;BME280;63771;52.580;9.734;2024-01-30T01:42:56;102410.16;;;4.68;98.38
75192;BME280;63771;52.580;9.734;2024-01-30T01:45:21;102409.44;;;4.69;98.57
75192;BME280;63771;52.580;9.734;2024-01-30T01:47:50;102414.00;;;4.72;98.24
75192;BME280;63771;52.580;9.734;2024-01-30T01:50:16;102411.91;;;4.75;98.70
75192;BME280;63771;52.580;9.734;2024-01-30T01:52:47;102414.44;;;4.75;98.24
75192;BME280;63771;52.580;9.734;2024-01-30T01:55:13;102408.44;;;4.75;98.33
75192;BME280;63771;52.580;9.734;2024-01-30T01:57:39;102396.13;;;4.70;98.34
75192;BME280;63771;52.580;9.734;2024-01-30T02:00:05;102396.41;;;4.66;98.31
75192;BME280;63771;52.580;9.734;2024-01-30T02:02:32;102394.59;;;4.65;98.42
75192;BME280;63771;52.580;9.734;2024-01-30T02:05:00;102384.78;;;4.61;98.38
75192;BME280;63771;52.580;9.734;2024-01-30T02:07:26;102396.00;;;4.63;98.26
75192;BME280;63771;52.580;9.734;2024-01-30T02:09:52;102390.75;;;4.62;98.45
75192;BME280;63771;52.580;9.734;2024-01-30T02:12:17;102385.69;;;4.62;98.47
75192;BME280;63771;52.580;9.734;2024-01-30T02:14:46;102394.91;;;4.61;98.24
75192;BME280;63771;52.580;9.734;2024-01-30T02:17:12;102385.50;;;4.60;98.95
75192;BME280;63771;52.580;9.734;2024-01-30T02:19:38;102377.00;;;4.60;98.92
75192;BME280;63771;52.580;9.734;2024-01-30T02:22:04;102384.78;;;4.61;98.76
75192;BME280;63771;52.580;9.734;2024-01-30T02:24:29;102378.03;;;4.55;99.19
75192;BME280;63771;52.580;9.734;2024-01-30T02:26:55;102371.13;;;4.54;99.33
75192;BME280;63771;52.580;9.734;2024-01-30T02:29:23;102363.34;;;4.52;99.25
75192;BME280;63771;52.580;9.734;2024-01-30T02:31:48;102365.97;;;4.47;99.49
75192;BME280;63771;52.580;9.734;2024-01-30T02:34:14;102366.16;;;4.48;99.29
75192;BME280;63771;52.580;9.734;2024-01-30T02:36:42;102359.59;;;4.43;99.19
75192;BME280;63771;52.580;9.734;2024-01-30T02:39:08;102359.41;;;4.41;99.44
75192;BME280;63771;52.580;9.734;2024-01-30T02:41:36;102350.22;;;4.42;99.39
75192;BME280;63771;52.580;9.734;2024-01-30T02:44:04;102358.69;;;4.42;99.03
75192;BME280;63771;52.580;9.734;2024-01-30T02:46:30;102344.34;;;4.36;100.00
75192;BME280;63771;52.580;9.734;2024-01-30T02:48:55;102344.53;;;4.37;100.00
75192;BME280;63771;52.580;9.734;2024-01-30T02:51:21;102350.22;;;4.42;100.00
75192;BME280;63771;52.580;9.734;2024-01-30T02:53:46;102348.81;;;4.44;100.00
75192;BME280;63771;52.580;9.734;2024-01-30T02:56:11;102347.19;;;4.44;100.00
75192;BME280;63771;52.580;9.734;2024-01-30T02:58:39;102347.38;;;4.46;100.00
75192;BME280;63771;52.580;9.734;2024-01-30T03:01:04;102340.00;;;4.48;100.00
75192;BME280;63771;52.580;9.734;2024-01-30T03:03:30;102337.69;;;4.49;100.00
75192;BME280;63771;52.580;9.734;2024-01-30T03:05:55;102331.94;;;4.50;100.00
75192;BME280;63771;52.580;9.734;2024-01-30T03:08:20;102330.50;;;4.52;100.00
75192;BME280;63771;52.580;9.734;2024-01-30T03:10:46;102327.25;;;4.53;100.00
75192;BME280;63771;52.580;9.734;2024-01-30T03:13:11;102322.91;;;4.52;100.00
75192;BME280;63771;52.580;9.734;2024-01-30T03:15:37;102321.91;;;4.57;100.00
75192;BME280;63771;52.580;9.734;2024-01-30T03:18:02;102318.66;;;4.58;100.00
75192;BME280;63771;52.580;9.734;2024-01-30T03:20:29;102320.88;;;4.62;100.00
75192;BME280;63771;52.580;9.734;2024-01-30T03:22:55;102319.47;;;4.64;100.00
75192;BME280;63771;52.580;9.734;2024-01-30T03:25:21;102323.13;;;4.66;100.00
75192;BME280;63771;52.580;9.734;2024-01-30T03:27:46;102325.13;;;4.69;100.00
75192;BME280;63771;52.580;9.734;2024-01-30T03:30:11;102317.75;;;4.70;100.00
75192;BME280;63771;52.580;9.734;2024-01-30T03:32:37;102323.00;;;4.72;100.00
75192;BME280;63771;52.580;9.734;2024-01-30T03:35:05;102324.31;;;4.76;100.00
75192;BME280;63771;52.580;9.734;2024-01-30T03:37:30;102317.84;;;4.78;100.00
75192;BME280;63771;52.580;9.734;2024-01-30T03:39:56;102317.66;;;4.76;100.00
75192;BME280;63771;52.580;9.734;2024-01-30T03:42:21;102316.53;;;4.74;100.00
75192;BME280;63771;52.580;9.734;2024-01-30T03:44:47;102320.19;;;4.76;100.00
75192;BME280;63771;52.580;9.734;2024-01-30T03:47:13;102319.28;;;4.76;100.00
75192;BME280;63771;52.580;9.734;2024-01-30T03:49:38;102301.47;;;4.68;100.00
75192;BME280;63771;52.580;9.734;2024-01-30T03:52:04;102313.59;;;4.71;100.00
75192;BME280;63771;52.580;9.734;2024-01-30T03:54:29;102304.72;;;4.67;100.00
75192;BME280;63771;52.580;9.734;2024-01-30T03:56:54;102304.72;;;4.67;100.00
75192;BME280;63771;52.580;9.734;2024-01-30T03:59:20;102315.34;;;4.65;100.00
75192;BME280;63771;52.580;9.734;2024-01-30T04:01:50;102313.50;;;4.64;100.00
75192;BME280;63771;52.580;9.734;2024-01-30T04:04:15;102304.81;;;4.62;100.00
75192;BME280;63771;52.580;9.734;2024-01-30T04:06:44;102308.25;;;4.62;100.00
75192;BME280;63771;52.580;9.734;2024-01-30T04:09:10;102313.31;;;4.62;100.00
75192;BME280;63771;52.580;9.734;2024-01-30T04:11:36;102304.81;;;4.62;100.00
75192;BME280;63771;52.580;9.734;2024-01-30T04:14:01;102308.97;;;4.61;100.00
75192;BME280;63771;52.580;9.734;2024-01-30T04:16:26;102308.97;;;4.61;100.00
75192;BME280;63771;52.580;9.734;2024-01-30T04:18:52;102304.81;;;4.62;100.00
75192;BME280;63771;52.580;9.734;2024-01-30T04:21:17;102303.50;;;4.58;100.00
75192;BME280;63771;52.580;9.734;2024-01-30T04:23:43;102302.22;;;4.55;100.00
75192;BME280;63771;52.580;9.734;2024-01-30T04:26:08;102308.56;;;4.58;100.00
75192;BME280;63771;52.580;9.734;2024-01-30T04:28:37;102308.56;;;4.58;100.00
75192;BME280;63771;52.580;9.734;2024-01-30T04:31:02;102309.97;;;4.56;100.00
75192;BME280;63771;52.580;9.734;2024-01-30T04:33:28;102311.78;;;4.57;100.00
75192;BME280;63771;52.580;9.734;2024-01-30T04:35:53;102311.78;;;4.57;100.00
75192;BME280;63771;52.580;9.734;2024-01-30T04:38:21;102309.19;;;4.50;100.00
75192;BME280;63771;52.580;9.734;2024-01-30T04:40:47;102313.22;;;4.55;100.00
75192;BME280;63771;52.580;9.734;2024-01-30T04:43:12;102314.13;;;4.56;100.00
75192;BME280;63771;52.580;9.734;2024-01-30T04:45:37;102314.13;;;4.56;100.00
75192;BME280;63771;52.580;9.734;2024-01-30T04:48:03;102315.03;;;4.56;100.00
75192;BME280;63771;52.580;9.734;2024-01-30T04:50:31;102305.94;;;4.51;100.00
75192;BME280;63771;52.580;9.734;2024-01-30T04:52:56;102313.00;;;4.54;100.00
75192;BME280;63771;52.580;9.734;2024-01-30T04:55:22;102309.56;;;4.53;100.00
75192;BME280;63771;52.580;9.734;2024-01-30T04:57:47;102307.25;;;4.55;100.00
75192;BME280;63771;52.580;9.734;2024-01-30T05:00:13;102302.22;;;4.55;100.00
75192;BME280;63771;52.580;9.734;2024-01-30T05:02:38;102304.31;;;4.52;100.00
75192;BME280;63771;52.580;9.734;2024-01-30T05:05:04;102304.13;;;4.50;100.00
75192;BME280;63771;52.580;9.734;2024-01-30T05:07:29;102311.00;;;4.51;100.00
75192;BME280;63771;52.580;9.734;2024-01-30T05:09:54;102303.22;;;4.50;100.00
75192;BME280;63771;52.580;9.734;2024-01-30T05:12:20;102305.75;;;4.50;100.00
75192;BME280;63771;52.580;9.734;2024-01-30T05:14:45;102296.13;;;4.47;100.00
75192;BME280;63771;52.580;9.734;2024-01-30T05:17:10;102294.31;;;4.46;100.00
75192;BME280;63771;52.580;9.734;2024-01-30T05:19:38;102292.81;;;4.41;100.00
75192;BME280;63771;52.580;9.734;2024-01-30T05:22:03;102301.50;;;4.43;100.00
75192;BME280;63771;52.580;9.734;2024-01-30T05:24:28;102297.16;;;4.42;100.00
75192;BME280;63771;52.580;9.734;2024-01-30T05:26:54;102296.97;;;4.40;100.00
75192;BME280;63771;52.580;9.734;2024-01-30T05:29:19;102297.88;;;4.41;100.00
75192;BME280;63771;52.580;9.734;2024-01-30T05:31:44;102295.34;;;4.41;100.00
75192;BME280;63771;52.580;9.734;2024-01-30T05:34:10;102296.44;;;4.43;100.00
75192;BME280;63771;52.580;9.734;2024-01-30T05:36:35;102292.63;;;4.39;100.00
75192;BME280;63771;52.580;9.734;2024-01-30T05:39:01;102298.97;;;4.43;100.00
75192;BME280;63771;52.580;9.734;2024-01-30T05:41:26;102289.56;;;4.42;100.00
75192;BME280;63771;52.580;9.734;2024-01-30T05:43:51;102298.97;;;4.43;100.00
75192;BME280;63771;52.580;9.734;2024-01-30T05:46:17;102304.91;;;4.43;100.00
75192;BME280;63771;52.580;9.734;2024-01-30T05:48:42;102295.16;;;4.39;100.00
75192;BME280;63771;52.580;9.734;2024-01-30T05:51:07;102302.63;;;4.45;100.00
75192;BME280;63771;52.580;9.734;2024-01-30T05:53:33;102297.34;;;4.43;100.00
75192;BME280;63771;52.580;9.734;2024-01-30T05:56:01;102298.97;;;4.43;100.00
75192;BME280;63771;52.580;9.734;2024-01-30T05:58:26;102295.34;;;4.41;100.00
75192;BME280;63771;52.580;9.734;2024-01-30T06:00:51;102299.69;;;4.42;100.00
75192;BME280;63771;52.580;9.734;2024-01-30T06:03:17;102300.19;;;4.39;100.00
75192;BME280;63771;52.580;9.734;2024-01-30T06:05:42;102297.66;;;4.39;100.00
75192;BME280;63771;52.580;9.734;2024-01-30T06:08:07;102296.25;;;4.41;100.00
75192;BME280;63771;52.580;9.734;2024-01-30T06:10:33;102295.16;;;4.39;100.00
75192;BME280;63771;52.580;9.734;2024-01-30T06:12:58;102284.81;;;4.38;100.00
75192;BME280;63771;52.580;9.734;2024-01-30T06:15:23;102281.38;;;4.37;100.00
75192;BME280;63771;52.580;9.734;2024-01-30T06:17:49;102281.00;;;4.34;100.00
75192;BME280;63771;52.580;9.734;2024-01-30T06:20:14;102269.56;;;4.31;100.00
75192;BME280;63771;52.580;9.734;2024-01-30T06:22:40;102282.91;;;4.30;100.00
75192;BME280;63771;52.580;9.734;2024-01-30T06:25:05;102284.53;;;4.29;100.00
75192;BME280;63771;52.580;9.734;2024-01-30T06:27:31;102279.25;;;4.28;100.00
75192;BME280;63771;52.580;9.734;2024-01-30T06:29:56;102276.53;;;4.26;100.00
75192;BME280;63771;52.580;9.734;2024-01-30T06:32:21;102274.91;;;4.27;100.00
75192;BME280;63771;52.580;9.734;2024-01-30T06:34:46;102280.88;;;4.27;100.00
75192;BME280;63771;52.580;9.734;2024-01-30T06:37:12;102276.53;;;4.26;100.00
75192;BME280;63771;52.580;9.734;2024-01-30T06:39:38;102279.97;;;4.27;100.00
75192;BME280;63771;52.580;9.734;2024-01-30T06:42:03;102273.31;;;4.27;100.00
75192;BME280;63771;52.580;9.734;2024-01-30T06:44:29;102274.63;;;4.31;100.00
75192;BME280;63771;52.580;9.734;2024-01-30T06:46:57;102278.97;;;4.32;100.00
75192;BME280;63771;52.580;9.734;2024-01-30T06:49:22;102277.34;;;4.32;100.00
75192;BME280;63771;52.580;9.734;2024-01-30T06:51:48;102270.47;;;4.31;100.00
75192;BME280;63771;52.580;9.734;2024-01-30T06:54:13;102278.25;;;4.33;100.00
75192;BME280;63771;52.580;9.734;2024-01-30T06:56:38;102282.81;;;4.35;100.00
75192;BME280;63771;52.580;9.734;2024-01-30T06:59:04;102282.28;;;4.38;100.00
75192;BME280;63771;52.580;9.734;2024-01-30T07:01:30;102287.75;;;4.41;100.00
75192;BME280;63771;52.580;9.734;2024-01-30T07:03:55;102282.69;;;4.41;100.00
75192;BME280;63771;52.580;9.734;2024-01-30T07:06:21;102283.13;;;4.44;100.00
75192;BME280;63771;52.580;9.734;2024-01-30T07:08:49;102284.94;;;4.45;100.00
75192;BME280;63771;52.580;9.734;2024-01-30T07:11:21;102282.59;;;4.47;100.00
75192;BME280;63771;52.580;9.734;2024-01-30T07:13:47;102274.31;;;4.48;100.00
75192;BME280;63771;52.580;9.734;2024-01-30T07:16:14;102281.78;;;4.53;100.00
75192;BME280;63771;52.580;9.734;2024-01-30T07:18:39;102278.75;;;4.56;100.00
75192;BME280;63771;52.580;9.734;2024-01-30T07:21:05;102281.88;;;4.60;100.00
75192;BME280;63771;52.580;9.734;2024-01-30T07:23:30;102273.41;;;4.60;100.00
75192;BME280;63771;52.580;9.734;2024-01-30T07:25:55;102280.97;;;4.60;100.00
75192;BME280;63771;52.580;9.734;2024-01-30T07:28:21;102279.34;;;4.60;100.00
75192;BME280;63771;52.580;9.734;2024-01-30T07:30:46;102280.44;;;4.62;100.00
75192;BME280;63771;52.580;9.734;2024-01-30T07:33:13;102282.97;;;4.62;100.00
75192;BME280;63771;52.580;9.734;2024-01-30T07:35:38;102276.50;;;4.64;100.00
75192;BME280;63771;52.580;9.734;2024-01-30T07:38:06;102286.28;;;4.68;100.00
75192;BME280;63771;52.580;9.734;2024-01-30T07:40:32;102273.97;;;4.64;100.00
75192;BME280;63771;52.580;9.734;2024-01-30T07:42:58;102280.75;;;4.71;100.00
75192;BME280;63771;52.580;9.734;2024-01-30T07:45:23;102286.19;;;4.74;100.00
75192;BME280;63771;52.580;9.734;2024-01-30T07:47:50;102275.16;;;4.74;100.00
75192;BME280;63771;52.580;9.734;2024-01-30T07:50:16;102277.91;;;4.75;100.00
75192;BME280;63771;52.580;9.734;2024-01-30T07:52:42;102276.66;;;4.79;100.00
75192;BME280;63771;52.580;9.734;2024-01-30T07:55:08;102279.38;;;4.80;100.00
75192;BME280;63771;52.580;9.734;2024-01-30T07:57:33;102268.06;;;4.84;100.00
75192;BME280;63771;52.580;9.734;2024-01-30T07:59:59;102265.72;;;4.85;100.00
75192;BME280;63771;52.580;9.734;2024-01-30T08:02:25;102269.97;;;4.92;100.00
75192;BME280;63771;52.580;9.734;2024-01-30T08:04:50;102263.66;;;4.95;100.00
75192;BME280;63771;52.580;9.734;2024-01-30T08:07:15;102240.72;;;4.94;100.00
75192;BME280;63771;52.580;9.734;2024-01-30T08:09:42;102246.56;;;5.00;100.00
75192;BME280;63771;52.580;9.734;2024-01-30T08:12:07;102254.75;;;5.05;100.00
75192;BME280;63771;52.580;9.734;2024-01-30T08:14:33;102254.25;;;5.07;100.00
75192;BME280;63771;52.580;9.734;2024-01-30T08:16:58;102252.81;;;5.09;100.00
75192;BME280;63771;52.580;9.734;2024-01-30T08:19:24;102250.88;;;5.14;100.00
75192;BME280;63771;52.580;9.734;2024-01-30T08:21:49;102250.34;;;5.16;100.00
75192;BME280;63771;52.580;9.734;2024-01-30T08:24:14;102249.84;;;5.19;100.00
75192;BME280;63771;52.580;9.734;2024-01-30T08:26:43;102252.97;;;5.23;100.00
75192;BME280;63771;52.580;9.734;2024-01-30T08:29:08;102251.50;;;5.26;100.00
75192;BME280;63771;52.580;9.734;2024-01-30T08:31:33;102255.34;;;5.29;100.00
75192;BME280;63771;52.580;9.734;2024-01-30T08:33:59;102246.53;;;5.33;100.00
75192;BME280;63771;52.580;9.734;2024-01-30T08:36:25;102244.38;;;5.36;100.00
75192;BME280;63771;52.580;9.734;2024-01-30T08:38:50;102248.03;;;5.38;100.00
75192;BME280;63771;52.580;9.734;2024-01-30T08:41:15;102242.63;;;5.42;100.00
75192;BME280;63771;52.580;9.734;2024-01-30T08:43:41;102260.03;;;5.46;100.00
75192;BME280;63771;52.580;9.734;2024-01-30T08:46:06;102258.78;;;5.49;100.00
75192;BME280;63771;52.580;9.734;2024-01-30T08:48:31;102249.56;;;5.50;100.00
75192;BME280;63771;52.580;9.734;2024-01-30T08:50:57;102251.25;;;5.57;100.00
75192;BME280;63771;52.580;9.734;2024-01-30T08:53:22;102250.38;;;5.63;100.00
75192;BME280;63771;52.580;9.734;2024-01-30T08:55:50;102248.66;;;5.69;100.00
75192;BME280;63771;52.580;9.734;2024-01-30T08:58:16;102242.53;;;5.74;100.00
75192;BME280;63771;52.580;9.734;2024-01-30T09:00:46;102238.75;;;5.78;100.00
75192;BME280;63771;52.580;9.734;2024-01-30T09:03:12;102240.94;;;5.82;100.00
75192;BME280;63771;52.580;9.734;2024-01-30T09:05:37;102244.06;;;5.87;100.00
75192;BME280;63771;52.580;9.734;2024-01-30T09:08:02;102243.06;;;5.92;100.00
75192;BME280;63771;52.580;9.734;2024-01-30T09:10:28;102238.34;;;5.95;100.00
75192;BME280;63771;52.580;9.734;2024-01-30T09:12:53;102246.00;;;6.02;100.00
75192;BME280;63771;52.580;9.734;2024-01-30T09:15:18;102242.03;;;6.04;100.00
75192;BME280;63771;52.580;9.734;2024-01-30T09:17:44;102247.34;;;6.13;100.00
75192;BME280;63771;52.580;9.734;2024-01-30T09:20:10;102244.66;;;6.18;100.00
75192;BME280;63771;52.580;9.734;2024-01-30T09:22:35;102246.84;;;6.22;100.00
75192;BME280;63771;52.580;9.734;2024-01-30T09:25:00;102238.38;;;6.29;100.00
75192;BME280;63771;52.580;9.734;2024-01-30T09:27:26;102240.75;;;6.35;100.00
75192;BME280;63771;52.580;9.734;2024-01-30T09:29:51;102240.41;;;6.39;100.00
75192;BME280;63771;52.580;9.734;2024-01-30T09:32:17;102244.75;;;6.40;99.90
75192;BME280;63771;52.580;9.734;2024-01-30T09:34:43;102242.97;;;6.46;100.00
75192;BME280;63771;52.580;9.734;2024-01-30T09:37:11;102247.38;;;6.54;99.89
75192;BME280;63771;52.580;9.734;2024-01-30T09:39:40;102249.19;;;6.62;99.58
75192;BME280;63771;52.580;9.734;2024-01-30T09:42:09;102245.06;;;6.70;99.11
75192;BME280;63771;52.580;9.734;2024-01-30T09:44:37;102248.91;;;6.73;98.99
75192;BME280;63771;52.580;9.734;2024-01-30T09:47:03;102248.91;;;6.80;98.76
75192;BME280;63771;52.580;9.734;2024-01-30T09:49:34;102247.44;;;6.83;98.27
75192;BME280;63771;52.580;9.734;2024-01-30T09:52:00;102243.50;;;6.92;98.18
75192;BME280;63771;52.580;9.734;2024-01-30T09:54:25;102240.44;;;6.94;97.83
75192;BME280;63771;52.580;9.734;2024-01-30T09:56:51;102241.34;;;7.02;97.60
75192;BME280;63771;52.580;9.734;2024-01-30T09:59:16;102240.28;;;7.07;97.56
75192;BME280;63771;52.580;9.734;2024-01-30T10:01:42;102243.53;;;7.13;97.63
75192;BME280;63771;52.580;9.734;2024-01-30T10:04:07;102248.44;;;7.19;97.33
75192;BME280;63771;52.580;9.734;2024-01-30T10:06:33;102240.47;;;7.23;97.15
75192;BME280;63771;52.580;9.734;2024-01-30T10:08:59;102239.38;;;7.28;96.68
75192;BME280;63771;52.580;9.734;2024-01-30T10:11:24;102235.75;;;7.33;96.73
75192;BME280;63771;52.580;9.734;2024-01-30T10:13:50;102234.31;;;7.35;96.28
75192;BME280;63771;52.580;9.734;2024-01-30T10:16:15;102235.03;;;7.41;96.38
75192;BME280;63771;52.580;9.734;2024-01-30T10:18:42;102230.50;;;7.46;95.99
75192;BME280;63771;52.580;9.734;2024-01-30T10:21:08;102234.50;;;7.51;96.16
75192;BME280;63771;52.580;9.734;2024-01-30T10:23:34;102227.59;;;7.50;95.62
75192;BME280;63771;52.580;9.734;2024-01-30T10:25:59;102237.22;;;7.59;95.28
75192;BME280;63771;52.580;9.734;2024-01-30T10:28:27;102238.84;;;7.66;95.24
75192;BME280;63771;52.580;9.734;2024-01-30T10:31:00;102231.03;;;7.72;95.22
75192;BME280;63771;52.580;9.734;2024-01-30T10:33:30;102224.69;;;7.75;94.99
75192;BME280;63771;52.580;9.734;2024-01-30T10:36:03;102223.59;;;7.80;95.10
75192;BME280;63771;52.580;9.734;2024-01-30T10:38:30;102219.22;;;7.87;94.61
75192;BME280;63771;52.580;9.734;2024-01-30T10:41:00;102219.03;;;7.92;94.35
75192;BME280;63771;52.580;9.734;2024-01-30T10:43:35;102217.75;;;7.96;94.07
75192;BME280;63771;52.580;9.734;2024-01-30T10:46:21;102221.91;;;8.02;93.99
75192;BME280;63771;52.580;9.734;2024-01-30T10:48:57;102211.53;;;8.08;94.00
75192;BME280;63771;52.580;9.734;2024-01-30T10:51:29;102216.09;;;8.10;93.81
75192;BME280;63771;52.580;9.734;2024-01-30T10:53:55;102209.34;;;8.18;93.58
75192;BME280;63771;52.580;9.734;2024-01-30T10:56:21;102203.88;;;8.22;93.13
75192;BME280;63771;52.580;9.734;2024-01-30T10:58:48;102196.25;;;8.22;93.16
75192;BME280;63771;52.580;9.734;2024-01-30T11:01:14;102196.41;;;8.31;93.16
75192;BME280;63771;52.580;9.734;2024-01-30T11:03:40;102200.91;;;8.33;92.89
75192;BME280;63771;52.580;9.734;2024-01-30T11:06:10;102191.31;;;8.38;92.76
75192;BME280;63771;52.580;9.734;2024-01-30T11:08:36;102199.47;;;8.43;92.20
75192;BME280;63771;52.580;9.734;2024-01-30T11:11:08;102191.09;;;8.44;91.84
75192;BME280;63771;52.580;9.734;2024-01-30T11:13:34;102194.34;;;8.50;92.32
75192;BME280;63771;52.580;9.734;2024-01-30T11:16:04;102189.63;;;8.53;92.11
75192;BME280;63771;52.580;9.734;2024-01-30T11:18:31;102184.84;;;8.56;91.69
75192;BME280;63771;52.580;9.734;2024-01-30T11:20:57;102197.19;;;8.60;91.60
75192;BME280;63771;52.580;9.734;2024-01-30T11:23:23;102195.91;;;8.63;91.17
75192;BME280;63771;52.580;9.734;2024-01-30T11:25:49;102191.91;;;8.66;91.10
75192;BME280;63771;52.580;9.734;2024-01-30T11:28:15;102192.25;;;8.69;91.11
75192;BME280;63771;52.580;9.734;2024-01-30T11:30:44;102192.03;;;8.74;91.10
75192;BME280;63771;52.580;9.734;2024-01-30T11:33:12;102191.66;;;8.78;91.07
75192;BME280;63771;52.580;9.734;2024-01-30T11:35:42;102182.38;;;8.79;90.85
75192;BME280;63771;52.580;9.734;2024-01-30T11:38:09;102193.41;;;8.86;90.97
75192;BME280;63771;52.580;9.734;2024-01-30T11:40:37;102183.59;;;8.89;90.95
75192;BME280;63771;52.580;9.734;2024-01-30T11:43:04;102184.84;;;8.93;90.75
75192;BME280;63771;52.580;9.734;2024-01-30T11:45:31;102172.28;;;8.95;90.74
75192;BME280;63771;52.580;9.734;2024-01-30T11:47:57;102180.97;;;8.97;90.55
75192;BME280;63771;52.580;9.734;2024-01-30T11:50:25;102182.59;;;9.03;90.34
75192;BME280;63771;52.580;9.734;2024-01-30T11:52:50;102178.56;;;9.05;90.31
75192;BME280;63771;52.580;9.734;2024-01-30T11:55:16;102184.00;;;9.08;90.15
75192;BME280;63771;52.580;9.734;2024-01-30T11:57:42;102174.31;;;9.13;90.11
75192;BME280;63771;52.580;9.734;2024-01-30T12:00:16;102168.97;;;9.19;90.00
75192;BME280;63771;52.580;9.734;2024-01-30T12:02:42;102160.06;;;9.22;89.76
75192;BME280;63771;52.580;9.734;2024-01-30T12:05:08;102168.03;;;9.25;90.08
75192;BME280;63771;52.580;9.734;2024-01-30T12:07:34;102159.28;;;9.30;90.15
75192;BME280;63771;52.580;9.734;2024-01-30T12:10:00;102149.41;;;9.33;89.87
75192;BME280;63771;52.580;9.734;2024-01-30T12:12:26;102156.09;;;9.40;89.74
75192;BME280;63771;52.580;9.734;2024-01-30T12:14:52;102158.22;;;9.44;89.90
75192;BME280;63771;52.580;9.734;2024-01-30T12:17:31;102164.91;;;9.51;89.40
75192;BME280;63771;52.580;9.734;2024-01-30T12:20:11;102173.06;;;9.55;88.97
75192;BME280;63771;52.580;9.734;2024-01-30T12:22:37;102172.81;;;9.61;88.98
75192;BME280;63771;52.580;9.734;2024-01-30T12:25:13;102179.31;;;9.66;88.54
75192;BME280;63771;52.580;9.734;2024-01-30T12:27:39;102173.78;;;9.70;88.21
75192;BME280;63771;52.580;9.734;2024-01-30T12:30:09;102182.28;;;9.78;88.77
75192;BME280;63771;52.580;9.734;2024-01-30T12:32:40;102182.94;;;9.84;88.91
75192;BME280;63771;52.580;9.734;2024-01-30T12:35:11;102177.59;;;9.89;88.28
75192;BME280;63771;52.580;9.734;2024-01-30T12:37:37;102175.72;;;9.96;87.83
75192;BME280;63771;52.580;9.734;2024-01-30T12:40:02;102175.66;;;10.03;88.19
75192;BME280;63771;52.580;9.734;2024-01-30T12:42:28;102167.56;;;10.07;88.12
75192;BME280;63771;52.580;9.734;2024-01-30T12:44:53;102172.59;;;10.14;87.77
75192;BME280;63771;52.580;9.734;2024-01-30T12:47:21;102174.28;;;10.22;87.28
75192;BME280;63771;52.580;9.734;2024-01-30T12:49:46;102174.09;;;10.28;87.04